• Join FlightAware (Why Join?)
  • Login
  • US Flag 
Gobble Gobble! 
05:37PM EST


 

Airport Tracker/Info


-or-


 

Live Flight TrackerFlight Track Log ✈ N137TK ✈ 24-Jun-2013 ✈ KAPF - KAVL

Flight Track Log - Related Links

Times and Time Zones

All times are in EDT time to prevent confusion due to time zone crossing. See the N137TK flight status page for this flight to view local times or setup timezone preferences in your user account.

Time Position Orientation Groundspeed Altitude Reporting Facility
EDT Latitude Longitude Course Direction KTS MPH feet Rate Location/Type
06:41PM 26.2286 -81.7361 353° North 175 201 3,900  Level Miami Center
06:42PM 26.2764 -81.7428 353° North 187 215 6,000 1,980 Climbing Miami Center
06:43PM 26.3219 -81.7539 348° North 181 208 7,900 1,800 Climbing Miami Center
06:44PM 26.3717 -81.7653 348° North 181 208 9,700 1,560 Climbing Miami Center
06:45PM 26.4197 -81.7694 356° North 181 208 11,100 1,500 Climbing Miami Center
06:46PM 26.4736 -81.7764 353° North 187 215 12,700 1,620 Climbing Miami Center
06:47PM 26.5361 -81.7858 352° North 192 221 14,400 1,560 Climbing Miami Center
06:48PM 26.5922 -81.7953 351° North 202 232 15,900 1,380 Climbing Miami Center
06:49PM 26.6461 -81.8022 353° North 202 232 17,200 1,260 Climbing Miami Center
06:50PM 26.7008 -81.7928 North 197 227 18,500 1,200 Climbing Miami Center
06:51PM 26.7556 -81.7767 15° North 197 227 19,600 1,140 Climbing Miami Center
06:52PM 26.8081 -81.7672 North 197 227 20,800 1,140 Climbing Miami Center
06:53PM 26.8606 -81.7553 11° North 197 227 21,900 1,080 Climbing Miami Center
06:54PM 26.9133 -81.7436 11° North 197 227 23,000 660 Climbing Miami Center
06:55PM 26.9722 -81.7297 12° North 202 232 23,300 360 Climbing Miami Center
06:56PM 27.0353 -81.7114 15° North 213 245 23,800 480 Climbing Miami Center
06:57PM 27.0944 -81.6953 North 234 269 24,300 480 Climbing Miami Center
06:58PM 27.1575 -81.6792 13° North 234 269 24,800 300 Climbing Miami Center
06:59PM 27.2333 -81.6614 12° North 245 282 25,000 60 Climbing Miami Center
07:00PM 27.3028 -81.6456 11° North 245 282 25,000  Level Miami Center
07:01PM 27.3742 -81.6253 14° North 250 288 25,000  Level Miami Center
07:02PM 27.4394 -81.6117 10° North 255 293 25,000  Level Miami Center
07:03PM 27.5131 -81.5911 14° North 260 299 25,000  Level Miami Center
07:04PM 27.5953 -81.5733 11° North 260 299 25,000  Level Miami Center
07:05PM 27.6689 -81.5531 14° North 265 305 25,000  Level Miami Center
07:06PM 27.7425 -81.5372 11° North 265 305 25,000  Level Miami Center
07:07PM 27.8078 -81.5189 14° North 260 299 25,000  Level Miami Center
07:08PM 27.8897 -81.4986 12° North 260 299 25,000  Level Miami Center
07:09PM 27.9633 -81.4831 11° North 260 299 25,000  Level Miami Center
07:10PM 28.0369 -81.4647 12° North 260 299 25,000  Level Miami Center
07:11PM 28.1106 -81.4442 14° North 260 299 25,000  Level Miami Center
07:12PM 28.1864 -81.4261 12° North 260 299 25,000  Level Miami Center
07:13PM 28.2600 -81.4081 12° North 260 299 25,000  Level Miami Center
07:14PM 28.3519 -81.3831 13° North 276 318 25,000  Level Jacksonville Center
07:15PM 28.4247 -81.3678 10° North 276 318 25,000  Level Jacksonville Center
07:16PM 28.4997 -81.3500 12° North 276 318 25,000  Level Jacksonville Center
07:17PM 28.5767 -81.3394 North 276 318 25,000  Level Jacksonville Center
07:18PM 28.6542 -81.3525 352° North 271 312 25,000  Level Jacksonville Center
07:19PM 28.7294 -81.3656 351° North 271 312 25,000  Level Jacksonville Center
07:20PM 28.8047 -81.3761 353° North 277 319 25,000  Level Jacksonville Center
07:21PM 28.8800 -81.3869 353° North 277 319 25,000  Level Jacksonville Center
07:22PM 28.9553 -81.4022 350° North 277 319 25,000  Level Jacksonville Center
07:23PM 29.0306 -81.4131 353° North 277 319 25,000  Level Jacksonville Center
07:24PM 29.1058 -81.4261 351° North 277 319 25,000  Level Jacksonville Center
07:25PM 29.1789 -81.4394 351° North 277 319 25,000  Level Jacksonville Center
07:26PM 29.2542 -81.4525 351° North 277 319 25,000  Level Jacksonville Center
07:27PM 29.3317 -81.4658 351° North 277 319 25,000  Level Jacksonville Center
07:28PM 29.4047 -81.4767 353° North 277 319 25,000  Level Jacksonville Center
07:29PM 29.4822 -81.4897 352° North 277 319 25,000  Level Jacksonville Center
07:30PM 29.5575 -81.5031 351° North 277 319 25,000  Level Jacksonville Center
07:31PM 29.6328 -81.5139 353° North 277 319 25,000  Level Jacksonville Center
07:32PM 29.7122 -81.5272 352° North 277 319 25,000  Level Jacksonville Center
07:33PM 29.7875 -81.5406 351° North 277 319 25,000  Level Jacksonville Center
07:34PM 29.8628 -81.5514 353° North 277 319 25,000  Level Jacksonville Center
07:35PM 29.9381 -81.5647 351° North 277 319 25,000  Level Jacksonville Center
07:36PM 30.0133 -81.5781 351° North 277 319 25,000  Level Jacksonville Center
07:37PM 30.0886 -81.5889 353° North 277 319 25,000  Level Jacksonville Center
07:38PM 30.1639 -81.6025 351° North 277 319 25,000  Level Jacksonville Center
07:39PM 30.2414 -81.6133 353° North 277 319 25,000  Level Jacksonville Center
07:40PM 30.3167 -81.6269 351° North 277 319 25,000  Level Jacksonville Center
07:41PM 30.3919 -81.6381 353° North 277 319 25,000  Level Jacksonville Center
07:42PM 30.4692 -81.6539 350° North 277 319 25,000  Level Jacksonville Center
07:43PM 30.5489 -81.6672 352° North 277 319 25,000  Level Jacksonville Center
07:44PM 30.6261 -81.6808 351° North 277 319 25,000  Level Jacksonville Center
07:45PM 30.7014 -81.6942 351° North 277 319 25,000  Level Jacksonville Center
07:46PM 30.7789 -81.7078 351° North 277 319 25,000  Level Jacksonville Center
07:47PM 30.8542 -81.7214 351° North 277 319 25,000  Level Jacksonville Center
07:48PM 30.9253 -81.7325 352° North 277 319 25,000  Level Jacksonville Center
07:49PM 31.0150 -81.7483 351° North 277 319 25,000  Level Jacksonville Center
07:50PM 31.0922 -81.7331 10° North 277 319 25,000  Level Jacksonville Center
07:51PM 31.1692 -81.7103 14° North 271 312 25,000  Level Jacksonville Center
07:52PM 31.2442 -81.6897 13° North 278 320 25,000  Level Jacksonville Center
07:53PM 31.3214 -81.6669 14° North 278 320 25,000  Level Jacksonville Center
07:54PM 31.3858 -81.6442 17° North 278 320 25,000  Level Jacksonville Center
07:55PM 31.4692 -81.6211 13° North 278 320 25,000  Level Jacksonville Center
07:56PM 31.5439 -81.5981 15° North 278 320 25,000  Level Jacksonville Center
07:57PM 31.6128 -81.5800 13° North 278 320 25,000  Level Jacksonville Center
07:58PM 31.6958 -81.5544 15° North 273 314 25,000  Level Jacksonville Center
07:59PM 31.7647 -81.5364 13° North 279 321 25,000  Level Jacksonville Center
08:00PM 31.8500 -81.5131 13° North 279 321 25,000  Level Jacksonville Center
08:01PM 31.9272 -81.4950 11° North 274 315 25,000  Level Jacksonville Center
08:02PM 31.9961 -81.4986 357° North 276 318 25,000  Level Jacksonville Center
08:03PM 32.0817 -81.5022 358° North 276 318 25,000  Level Jacksonville Center
08:04PM 32.1611 -81.5061 358° North 276 318 25,000  Level Jacksonville Center
08:05PM 32.2322 -81.5122 356° North 276 318 25,000  Level Jacksonville Center
08:06PM 32.3178 -81.5158 358° North 276 318 25,000  Level Jacksonville Center
08:07PM 32.3908 -81.5197 357° North 276 318 25,000  Level Jacksonville Center
08:08PM 32.4744 -81.5383 349° North 276 318 25,000  Level Jacksonville Center
08:09PM 32.5478 -81.5617 345° North 276 318 25,000  Level Jacksonville Center
08:11PM 32.6994 -81.6100 345° North 279 321 25,000  Level Atlanta Center
08:12PM 32.7750 -81.6350 344° North 279 321 25,000  Level Atlanta Center
08:13PM 32.8486 -81.6578 345° North 279 321 25,000  Level Atlanta Center
08:14PM 32.9222 -81.6856 342° North 279 321 25,000  Level Atlanta Center
08:15PM 32.9978 -81.7081 346° North 279 321 25,000  Level Atlanta Center
08:16PM 33.0692 -81.7336 343° North 279 321 25,000  Level Atlanta Center
08:17PM 33.1447 -81.7564 346° North 279 321 25,000  Level Atlanta Center
08:18PM 33.2183 -81.7817 344° North 274 315 25,000  Level Atlanta Center
08:19PM 33.2917 -81.8072 344° North 274 315 25,000  Level Atlanta Center
08:20PM 33.3633 -81.8328 343° North 269 310 25,000  Level Atlanta Center
08:21PM 33.4367 -81.8533 347° North 269 310 25,000  Level Atlanta Center
08:22PM 33.5081 -81.8789 343° North 269 310 25,000  Level Atlanta Center
08:23PM 33.5836 -81.9042 344° North 269 310 25,000 -360 Level Atlanta Center
08:24PM 33.6508 -81.9250 346° North 269 310 24,300 -540 Descending Atlanta Center
08:25PM 33.7286 -81.9531 343° North 275 316 24,000 -180 Descending Atlanta Center
08:26PM 33.8061 -81.9764 346° North 280 322 24,000  Level Atlanta Center
08:27PM 33.8797 -82.0044 342° North 280 322 24,000  Level Atlanta Center
08:28PM 33.9553 -82.0278 346° North 280 322 24,000  Level Atlanta Center
08:29PM 34.0267 -82.0536 343° North 280 322 24,000  Level Atlanta Center
08:30PM 34.1019 -82.0769 346° North 280 322 24,000 -180 Level Atlanta Center
08:31PM 34.1775 -82.1028 344° North 275 316 23,700 -780 Descending Atlanta Center
08:32PM 34.1796 -82.1038 344° North  Level FlightAware Approximate
08:32PM 34.2533 -82.1314 343° North 275 316 22,500  Level Atlanta Center
08:33PM 34.3392 -82.1619 344° North 286 329 20,900 -1,560 Descending Atlanta Center
08:34PM 34.4211 -82.1906 344° North 286 329 19,400 -1,500 Descending Atlanta Center
08:35PM 34.5028 -82.2164 345° North 296 341 17,900 -1,440 Descending Atlanta Center
08:37PM 34.5805 -82.2426 344° North  Level FlightAware Approximate
08:37PM 34.6664 -82.2758 344° North 301 346 15,100  Level Atlanta Center
08:38PM 34.7483 -82.3047 344° North 301 346 13,600 -1,500 Descending Atlanta Center
08:39PM 34.8258 -82.3308 345° North 301 346 12,100 -1,500 Descending Atlanta Center
08:40PM 34.9033 -82.3544 346° North 296 341 10,600 -1,500 Descending Atlanta Center
08:41PM 34.9789 -82.3833 343° North 291 335 9,200 -1,500 Descending Atlanta Center
08:42PM 35.0564 -82.4122 343° North 285 328 7,700 -1,140 Descending Atlanta Center
08:43PM 35.1278 -82.4364 345° North 280 322 7,000 -480 Descending Atlanta Center
08:44PM 35.1864 -82.4506 349° North 250 288 6,800 -900 Descending Atlanta Center
08:45PM 35.2492 -82.4594 353° North 221 254 5,200 -960 Descending Atlanta Center
08:46PM 35.2931 -82.4789 340° North 207 238 4,900 -420 Descending Atlanta Center
08:47PM 35.3456 -82.4958 345° North 194 223 4,400 2,520 Descending Atlanta Center
08:48PM 35.3978 -82.5125 345° North 194 223 10,000 5,580 Climbing Atlanta Center
08:50PM 35.4333 -82.5333 348° North  Level FlightAware Approximate
08:57PM 35.4362 -82.5418 348° North  Level Estimated
08:58PM 35.4362 -82.5418 348° North  Level Estimated
08:59PM 35.4362 -82.5418 348° North  Level Estimated
09:00PM 35.4362 -82.5418 348° North  Level Estimated